createdAt,value
2023-03-05T00:30:34.515Z,1011.98
2023-03-05T00:31:15.073Z,1011.99
2023-03-05T00:31:55.536Z,1011.96
2023-03-05T00:32:35.962Z,1011.97
2023-03-05T00:33:16.485Z,1011.95
2023-03-05T00:33:56.957Z,1011.97
2023-03-05T00:34:37.452Z,1011.97
2023-03-05T00:35:17.975Z,1011.96
2023-03-05T00:35:58.489Z,1011.96
2023-03-05T00:36:38.929Z,1011.95
2023-03-05T00:37:19.392Z,1011.97
2023-03-05T00:37:59.871Z,1011.98
2023-03-05T00:38:40.373Z,1011.96
2023-03-05T00:39:20.873Z,1011.94
2023-03-05T00:40:01.416Z,1011.95
2023-03-05T00:40:41.900Z,1011.93
2023-03-05T00:41:22.306Z,1011.93
2023-03-05T00:42:02.782Z,1011.97
2023-03-05T00:42:43.271Z,1011.92
2023-03-05T00:43:23.813Z,1011.94
2023-03-05T00:44:04.298Z,1011.94
2023-03-05T00:44:44.802Z,1011.93
2023-03-05T00:45:25.268Z,1011.91
2023-03-05T00:46:05.803Z,1011.94
2023-03-05T00:46:46.284Z,1011.95
2023-03-05T00:47:26.785Z,1011.93
2023-03-05T00:48:07.226Z,1011.92
2023-03-05T00:48:47.776Z,1011.85
2023-03-05T00:49:28.237Z,1011.88
2023-03-05T00:50:08.717Z,1011.84
2023-03-05T00:50:49.222Z,1011.86
2023-03-05T00:51:29.702Z,1011.86
2023-03-05T00:52:10.200Z,1011.79
2023-03-05T00:52:50.666Z,1011.81
2023-03-05T00:53:31.160Z,1011.77
2023-03-05T00:54:11.710Z,1011.77
2023-03-05T00:54:52.110Z,1011.73
2023-03-05T00:55:32.602Z,1011.77
2023-03-05T00:56:13.088Z,1011.73
2023-03-05T00:56:53.563Z,1011.72
2023-03-05T00:57:34.076Z,1011.73
2023-03-05T00:58:14.584Z,1011.69
2023-03-05T00:58:55.041Z,1011.66
2023-03-05T00:59:35.537Z,1011.71
2023-03-05T01:00:16.025Z,1011.69
2023-03-05T01:00:56.495Z,1011.69
2023-03-05T01:01:37.121Z,1011.68
2023-03-05T01:02:17.515Z,1011.65
2023-03-05T01:02:58.028Z,1011.66
2023-03-05T01:03:38.509Z,1011.67
2023-03-05T01:04:19.003Z,1011.66
2023-03-05T01:04:59.569Z,1011.62
2023-03-05T01:05:40.090Z,1011.63
2023-03-05T01:06:20.480Z,1011.65
2023-03-05T01:07:00.972Z,1011.64
2023-03-05T01:07:41.427Z,1011.65
2023-03-05T01:08:21.959Z,1011.64
2023-03-05T01:09:02.379Z,1011.59
2023-03-05T01:09:42.862Z,1011.55
2023-03-05T01:10:23.354Z,1011.56
2023-03-05T01:11:03.808Z,1011.59
2023-03-05T01:11:44.301Z,1011.59
2023-03-05T01:12:24.783Z,1011.55
2023-03-05T01:13:05.903Z,1011.54
2023-03-05T01:13:45.751Z,1011.52
2023-03-05T01:15:06.691Z,1011.48
2023-03-05T01:15:47.214Z,1011.5
2023-03-05T01:16:27.812Z,1011.51
2023-03-05T01:17:08.232Z,1011.47
2023-03-05T01:17:48.666Z,1011.52
2023-03-05T01:18:29.110Z,1011.46
2023-03-05T01:19:09.633Z,1011.46
2023-03-05T01:19:50.076Z,1011.46
2023-03-05T01:20:30.572Z,1011.47
2023-03-05T01:21:11.903Z,1011.48
2023-03-05T01:21:52.366Z,1011.41
2023-03-05T01:22:32.843Z,1011.44
2023-03-05T01:23:13.323Z,1011.42
2023-03-05T01:23:53.830Z,1011.41
2023-03-05T01:24:34.291Z,1011.44
2023-03-05T01:25:14.819Z,1011.41
2023-03-05T01:25:55.344Z,1011.42
2023-03-05T01:26:35.855Z,1011.4
2023-03-05T01:27:16.375Z,1011.4
2023-03-05T01:27:56.835Z,1011.42
2023-03-05T01:28:37.336Z,1011.41
2023-03-05T01:29:17.780Z,1011.4
2023-03-05T01:29:58.292Z,1011.36
2023-03-05T01:30:38.777Z,1011.43
2023-03-05T01:31:19.313Z,1011.34
2023-03-05T01:31:59.783Z,1011.36
2023-03-05T01:32:40.412Z,1011.38
2023-03-05T01:33:20.799Z,1011.36
2023-03-05T01:34:01.272Z,1011.37
2023-03-05T01:34:41.775Z,1011.35
2023-03-05T01:35:22.279Z,1011.35
2023-03-05T01:36:02.724Z,1011.36
2023-03-05T01:36:43.215Z,1011.33
2023-03-05T01:37:23.697Z,1011.34
2023-03-05T01:38:04.236Z,1011.31
2023-03-05T01:38:44.722Z,1011.31
2023-03-05T01:39:25.171Z,1011.31
2023-03-05T01:40:05.688Z,1011.28
2023-03-05T01:40:46.215Z,1011.27
2023-03-05T01:41:26.710Z,1011.28
2023-03-05T01:44:35.126Z,1011.24
2023-03-05T01:45:15.674Z,1011.21
2023-03-05T01:45:56.122Z,1011.23
2023-03-05T01:46:36.622Z,1011.23
2023-03-05T01:47:17.097Z,1011.23
2023-03-05T01:47:57.676Z,1011.2
2023-03-05T01:48:38.148Z,1011.21
2023-03-05T01:49:18.621Z,1011.23
2023-03-05T01:49:59.132Z,1011.19
2023-03-05T01:50:39.643Z,1011.22
2023-03-05T01:51:20.170Z,1011.16
2023-03-05T01:52:00.592Z,1011.15
2023-03-05T01:52:41.066Z,1011.18
2023-03-05T01:53:21.568Z,1011.16
2023-03-05T01:54:02.036Z,1011.17
2023-03-05T01:55:23.030Z,1011.15
2023-03-05T01:56:03.530Z,1011.12
2023-03-05T01:56:44.040Z,1011.11
2023-03-05T01:57:24.518Z,1011.09
2023-03-05T01:58:04.999Z,1011.06
2023-03-05T01:58:45.464Z,1011.04
2023-03-05T01:59:25.958Z,1011.05
2023-03-05T02:00:06.492Z,1011.02
2023-03-05T02:00:47.069Z,1011.01
2023-03-05T02:01:27.535Z,1011.02
2023-03-05T02:02:08.020Z,1011.04
2023-03-05T02:02:48.500Z,1011.01
2023-03-05T02:03:29.010Z,1011.01
2023-03-05T02:04:09.532Z,1011
2023-03-05T02:04:49.984Z,1010.99
2023-03-05T02:05:30.438Z,1010.94
2023-03-05T02:06:10.958Z,1010.96
2023-03-05T02:06:51.414Z,1010.99
2023-03-05T02:07:31.886Z,1010.94
2023-03-05T02:08:12.397Z,1010.95
2023-03-05T02:08:52.871Z,1010.91
2023-03-05T02:09:33.354Z,1010.96
2023-03-05T02:10:13.858Z,1010.92
2023-03-05T02:10:54.306Z,1010.89
2023-03-05T02:11:34.819Z,1010.9
2023-03-05T02:12:55.803Z,1010.96
2023-03-05T02:13:36.281Z,1010.9
2023-03-05T02:14:16.825Z,1010.91
2023-03-05T02:14:57.308Z,1010.87
2023-03-05T02:15:37.818Z,1010.89
2023-03-05T02:16:18.410Z,1010.88
2023-03-05T02:16:58.870Z,1010.89
2023-03-05T02:17:39.346Z,1010.87
2023-03-05T02:18:19.850Z,1010.87
2023-03-05T02:19:00.434Z,1010.88
2023-03-05T02:19:40.835Z,1010.85
2023-03-05T02:20:21.353Z,1010.8
2023-03-05T02:21:01.861Z,1010.81
2023-03-05T02:21:42.381Z,1010.82
2023-03-05T02:22:22.868Z,1010.79
2023-03-05T02:23:03.382Z,1010.84
2023-03-05T02:23:43.832Z,1010.81
2023-03-05T02:24:24.315Z,1010.76
2023-03-05T02:25:04.815Z,1010.78
2023-03-05T02:25:45.292Z,1010.8
2023-03-05T02:26:25.756Z,1010.78
2023-03-05T02:27:06.323Z,1010.81
2023-03-05T02:27:46.738Z,1010.78
2023-03-05T02:28:27.236Z,1010.73
2023-03-05T02:29:07.721Z,1010.73
2023-03-05T02:29:48.252Z,1010.74
2023-03-05T02:30:28.729Z,1010.72
2023-03-05T02:31:09.202Z,1010.69
2023-03-05T02:31:49.690Z,1010.74
2023-03-05T02:32:30.231Z,1010.71
2023-03-05T02:33:10.691Z,1010.68
2023-03-05T02:33:51.179Z,1010.72
2023-03-05T02:34:31.726Z,1010.71
2023-03-05T02:35:12.212Z,1010.69
2023-03-05T02:35:52.797Z,1010.65
2023-03-05T02:36:33.213Z,1010.68
2023-03-05T02:37:13.735Z,1010.67
2023-03-05T02:37:54.212Z,1010.62
2023-03-05T02:38:34.746Z,1010.66
2023-03-05T02:39:15.202Z,1010.62
2023-03-05T02:39:55.706Z,1010.63
2023-03-05T02:40:37.106Z,1010.64
2023-03-05T02:41:16.712Z,1010.63
2023-03-05T02:41:57.203Z,1010.63
2023-03-05T02:43:18.166Z,1010.62
2023-03-05T02:43:58.632Z,1010.61
2023-03-05T02:44:39.125Z,1010.6
2023-03-05T02:45:19.618Z,1010.59
2023-03-05T02:46:00.193Z,1010.62
2023-03-05T02:46:40.626Z,1010.58
2023-03-05T02:47:21.057Z,1010.6
2023-03-05T02:48:01.585Z,1010.57
2023-03-05T02:48:42.037Z,1010.59
2023-03-05T02:49:22.510Z,1010.57
2023-03-05T02:50:03.053Z,1010.51
2023-03-05T02:50:43.540Z,1010.55
2023-03-05T02:51:24.039Z,1010.56
2023-03-05T02:52:04.506Z,1010.56
2023-03-05T02:52:45.011Z,1010.54
2023-03-05T02:53:25.530Z,1010.5
2023-03-05T02:54:05.959Z,1010.5
2023-03-05T02:54:46.424Z,1010.51
2023-03-05T02:55:26.903Z,1010.46
2023-03-05T02:56:07.402Z,1010.49
2023-03-05T02:56:47.895Z,1010.46
2023-03-05T02:57:28.365Z,1010.42
2023-03-05T02:58:08.855Z,1010.45
2023-03-05T02:58:49.355Z,1010.48
2023-03-05T02:59:29.997Z,1010.42
2023-03-05T03:00:10.468Z,1010.42
2023-03-05T03:00:50.896Z,1010.45
2023-03-05T03:01:31.538Z,1010.39
2023-03-05T03:02:11.881Z,1010.44
2023-03-05T03:02:52.457Z,1010.47
2023-03-05T03:03:32.931Z,1010.46
2023-03-05T03:04:13.378Z,1010.43
2023-03-05T03:04:53.944Z,1010.45
2023-03-05T03:05:34.458Z,1010.43
2023-03-05T03:06:14.871Z,1010.43
2023-03-05T03:06:55.398Z,1010.46
2023-03-05T03:07:35.917Z,1010.41
2023-03-05T03:08:16.436Z,1010.43
2023-03-05T03:08:56.892Z,1010.43
2023-03-05T03:09:37.391Z,1010.44
2023-03-05T03:10:58.371Z,1010.42
2023-03-05T03:11:38.836Z,1010.38
2023-03-05T03:12:19.831Z,1010.42
2023-03-05T03:13:00.292Z,1010.39
2023-03-05T03:13:40.808Z,1010.39
2023-03-05T03:14:21.285Z,1010.38
2023-03-05T03:15:01.795Z,1010.34
2023-03-05T03:15:42.270Z,1010.37
2023-03-05T03:16:22.805Z,1010.38
2023-03-05T03:17:03.282Z,1010.32
2023-03-05T03:17:43.729Z,1010.32
2023-03-05T03:18:24.276Z,1010.32
2023-03-05T03:20:21.894Z,1010.33
2023-03-05T03:21:02.396Z,1010.36
2023-03-05T03:21:42.871Z,1010.35
2023-03-05T03:22:23.362Z,1010.33
2023-03-05T03:23:03.799Z,1010.35
2023-03-05T03:23:44.312Z,1010.31
2023-03-05T03:24:24.851Z,1010.33
2023-03-05T03:25:05.340Z,1010.3
2023-03-05T03:25:45.823Z,1010.32
2023-03-05T03:26:26.314Z,1010.31
2023-03-05T03:27:06.812Z,1010.31
2023-03-05T03:27:47.298Z,1010.27
2023-03-05T03:28:27.785Z,1010.26
2023-03-05T03:29:08.255Z,1010.25
2023-03-05T03:29:48.738Z,1010.29
2023-03-05T03:30:29.232Z,1010.28
2023-03-05T03:31:09.737Z,1010.22
2023-03-05T03:31:50.198Z,1010.25
2023-03-05T03:32:30.680Z,1010.18
2023-03-05T03:33:11.105Z,1010.17
2023-03-05T03:33:51.587Z,1010.18
2023-03-05T03:34:32.097Z,1010.22
2023-03-05T03:35:12.597Z,1010.17
2023-03-05T03:35:53.132Z,1010.14
2023-03-05T03:36:33.587Z,1010.16
2023-03-05T03:38:47.181Z,1010.1
2023-03-05T03:39:27.702Z,1010.1
2023-03-05T03:40:08.186Z,1010.05
2023-03-05T03:40:48.651Z,1010.09
2023-03-05T03:41:29.115Z,1010.1
2023-03-05T03:42:09.642Z,1010.1
2023-03-05T03:42:50.125Z,1010.08
2023-03-05T03:43:30.572Z,1010.08
2023-03-05T03:44:11.061Z,1010.07
2023-03-05T03:44:51.538Z,1010.09
2023-03-05T03:45:32.049Z,1010.11
2023-03-05T03:46:12.674Z,1010.1
2023-03-05T03:46:53.062Z,1010.08
2023-03-05T03:47:33.568Z,1010.06
2023-03-05T03:48:14.045Z,1010.04
2023-03-05T03:48:54.576Z,1010.03
2023-03-05T03:49:35.064Z,1010.04
2023-03-05T03:50:15.520Z,1010.02
2023-03-05T03:50:56.012Z,1010.02
2023-03-05T03:51:36.513Z,1009.98
2023-03-05T03:52:16.986Z,1010.05
2023-03-05T03:53:37.962Z,1010.03
2023-03-05T03:54:18.426Z,1010.03
2023-03-05T03:54:58.889Z,1010.01
2023-03-05T03:55:39.363Z,1010.01
2023-03-05T03:56:20.679Z,1010.04
2023-03-05T03:57:01.152Z,1010.02
2023-03-05T03:57:41.616Z,1010
2023-03-05T03:58:22.131Z,1010.02
2023-03-05T03:59:02.620Z,1009.99
2023-03-05T03:59:43.118Z,1010
2023-03-05T04:02:41.663Z,1010.01
2023-03-05T04:03:22.186Z,1009.95
2023-03-05T04:04:02.707Z,1009.93
2023-03-05T04:04:43.198Z,1009.92
2023-03-05T04:06:04.123Z,1009.93
2023-03-05T04:06:44.626Z,1009.95
2023-03-05T04:07:25.184Z,1009.95
2023-03-05T04:08:06.228Z,1009.96
2023-03-05T04:08:46.727Z,1009.91
2023-03-05T04:09:27.232Z,1009.91
2023-03-05T04:10:07.735Z,1009.89
2023-03-05T04:10:48.217Z,1009.91
2023-03-05T04:11:28.723Z,1009.89
2023-03-05T04:12:09.222Z,1009.91
2023-03-05T04:12:49.695Z,1009.88
2023-03-05T04:13:30.186Z,1009.88
2023-03-05T04:14:10.681Z,1009.94
2023-03-05T04:14:51.179Z,1009.87
2023-03-05T04:15:31.729Z,1009.88
2023-03-05T04:16:12.221Z,1009.87
2023-03-05T04:16:52.709Z,1009.81
2023-03-05T04:17:33.189Z,1009.84
2023-03-05T04:18:13.666Z,1009.83
2023-03-05T04:18:54.188Z,1009.83
2023-03-05T04:19:34.661Z,1009.78
2023-03-05T04:20:15.203Z,1009.77
2023-03-05T04:20:55.675Z,1009.76
2023-03-05T04:21:36.243Z,1009.8
2023-03-05T04:22:16.715Z,1009.75
2023-03-05T04:22:57.193Z,1009.75
2023-03-05T04:23:37.674Z,1009.7
2023-03-05T04:24:18.142Z,1009.75
2023-03-05T04:24:58.668Z,1009.75
2023-03-05T04:25:39.130Z,1009.74
2023-03-05T04:26:19.646Z,1009.71
2023-03-05T04:27:00.131Z,1009.74
2023-03-05T04:27:40.599Z,1009.69
2023-03-05T04:28:21.104Z,1009.7
2023-03-05T04:29:01.542Z,1009.7
2023-03-05T04:29:42.098Z,1009.64
2023-03-05T04:30:22.531Z,1009.7
2023-03-05T04:31:03.048Z,1009.66
2023-03-05T04:31:43.500Z,1009.65
2023-03-05T04:32:24.538Z,1009.7
2023-03-05T04:33:45.461Z,1009.65
2023-03-05T04:34:25.984Z,1009.68
2023-03-05T04:35:06.461Z,1009.69
2023-03-05T04:35:46.993Z,1009.64
2023-03-05T04:36:27.483Z,1009.69
2023-03-05T04:37:07.946Z,1009.69
2023-03-05T04:37:48.429Z,1009.66
2023-03-05T04:38:28.907Z,1009.68
2023-03-05T04:39:09.408Z,1009.65
2023-03-05T04:39:49.903Z,1009.61
2023-03-05T04:40:30.403Z,1009.61
2023-03-05T04:41:10.865Z,1009.64
2023-03-05T04:41:52.244Z,1009.61
2023-03-05T04:42:31.830Z,1009.58
2023-03-05T04:43:52.859Z,1009.63
2023-03-05T04:44:33.366Z,1009.62
2023-03-05T04:45:13.874Z,1009.6
2023-03-05T04:45:54.382Z,1009.58
2023-03-05T04:46:34.868Z,1009.58
2023-03-05T04:47:15.339Z,1009.59
2023-03-05T04:47:55.840Z,1009.58
2023-03-05T04:48:36.348Z,1009.58
2023-03-05T04:49:16.779Z,1009.53
2023-03-05T04:49:57.285Z,1009.52
2023-03-05T04:51:18.296Z,1009.55
2023-03-05T04:51:58.737Z,1009.51
2023-03-05T04:52:39.243Z,1009.53
2023-03-05T04:53:19.761Z,1009.54
2023-03-05T04:54:00.246Z,1009.49
2023-03-05T04:54:40.692Z,1009.54
2023-03-05T04:55:21.223Z,1009.52
2023-03-05T04:56:01.772Z,1009.49
2023-03-05T04:56:42.176Z,1009.49
2023-03-05T04:57:24.029Z,1009.5
2023-03-05T04:58:03.151Z,1009.51
2023-03-05T04:58:43.681Z,1009.42
2023-03-05T04:59:24.127Z,1009.45
2023-03-05T05:00:04.606Z,1009.41
2023-03-05T05:00:45.105Z,1009.41
2023-03-05T05:01:25.695Z,1009.45
2023-03-05T05:03:38.368Z,1009.41
2023-03-05T05:04:18.810Z,1009.41
2023-03-05T05:04:59.388Z,1009.42
2023-03-05T05:05:39.840Z,1009.39
2023-03-05T05:06:20.340Z,1009.38
2023-03-05T05:07:00.833Z,1009.37
2023-03-05T05:07:41.358Z,1009.37
2023-03-05T05:08:21.841Z,1009.37
2023-03-05T05:09:02.394Z,1009.38
2023-03-05T05:09:42.830Z,1009.37
2023-03-05T05:10:23.321Z,1009.38
2023-03-05T05:11:03.850Z,1009.37
2023-03-05T05:11:44.365Z,1009.33
2023-03-05T05:12:24.825Z,1009.33
2023-03-05T05:13:05.360Z,1009.36
2023-03-05T05:13:45.854Z,1009.37
2023-03-05T05:14:26.355Z,1009.38
2023-03-05T05:15:06.820Z,1009.35
2023-03-05T05:15:47.312Z,1009.34
2023-03-05T05:16:27.811Z,1009.34
2023-03-05T05:17:08.247Z,1009.31
2023-03-05T05:17:48.783Z,1009.28
2023-03-05T05:18:29.256Z,1009.27
2023-03-05T05:19:09.813Z,1009.3
2023-03-05T05:19:50.222Z,1009.3
2023-03-05T05:20:30.756Z,1009.29
2023-03-05T05:22:58.946Z,1009.3
2023-03-05T05:23:39.960Z,1009.25
2023-03-05T05:24:20.910Z,1009.29
2023-03-05T05:25:01.902Z,1009.25
2023-03-05T05:26:23.857Z,1009.25
2023-03-05T05:27:04.824Z,1009.27
2023-03-05T05:30:18.725Z,1009.22
2023-03-05T05:30:59.193Z,1009.2
2023-03-05T05:31:39.740Z,1009.23
2023-03-05T05:32:20.186Z,1009.25
2023-03-05T05:33:00.626Z,1009.19
2023-03-05T05:33:41.145Z,1009.18
2023-03-05T05:34:21.612Z,1009.22
2023-03-05T05:35:02.108Z,1009.16
2023-03-05T05:36:23.149Z,1009.22
2023-03-05T05:37:03.590Z,1009.2
2023-03-05T05:37:44.066Z,1009.2
2023-03-05T05:38:24.552Z,1009.18
2023-03-05T05:39:05.078Z,1009.21
2023-03-05T05:39:45.530Z,1009.23
2023-03-05T05:40:26.040Z,1009.22
2023-03-05T05:41:06.494Z,1009.24
2023-03-05T05:43:04.192Z,1009.21
2023-03-05T05:43:44.752Z,1009.16
2023-03-05T05:44:25.170Z,1009.22
2023-03-05T05:45:05.914Z,1009.18
2023-03-05T05:45:46.307Z,1009.2
2023-03-05T05:46:26.636Z,1009.18
2023-03-05T05:47:07.202Z,1009.14
2023-03-05T05:47:47.657Z,1009.17
2023-03-05T05:48:28.117Z,1009.15
2023-03-05T05:49:08.671Z,1009.15
2023-03-05T05:49:49.902Z,1009.12
2023-03-05T05:51:10.854Z,1009.22
2023-03-05T05:51:51.329Z,1009.14
2023-03-05T05:52:31.812Z,1009.16
2023-03-05T06:32:15.948Z,1009
2023-03-05T06:32:56.344Z,1009
2023-03-05T06:33:36.821Z,1009.03
2023-03-05T06:34:17.311Z,1009.01
2023-03-05T06:34:57.788Z,1009.03
2023-03-05T06:35:38.340Z,1009.03
2023-03-05T06:36:18.768Z,1009.07
2023-03-05T06:36:59.209Z,1009.06
2023-03-05T06:37:39.722Z,1009.03
2023-03-05T06:38:20.200Z,1009.03
2023-03-05T06:39:00.670Z,1009.08
2023-03-05T06:39:41.128Z,1009.05
2023-03-05T06:40:21.615Z,1009.02
2023-03-05T06:41:02.110Z,1009.02
2023-03-05T06:41:42.637Z,1009
2023-03-05T06:42:23.100Z,1009.02
2023-03-05T06:43:03.578Z,1009.01
2023-03-05T06:43:44.070Z,1009.04
2023-03-05T06:44:24.546Z,1009.03
2023-03-05T06:45:05.104Z,1009.03
2023-03-05T06:45:45.573Z,1008.98
2023-03-05T06:46:26.069Z,1008.99
2023-03-05T06:47:06.523Z,1008.98
2023-03-05T06:47:47.016Z,1008.95
2023-03-05T06:48:27.459Z,1008.95
2023-03-05T06:49:07.954Z,1008.93
2023-03-05T06:49:48.513Z,1009.01
2023-03-05T06:50:29.008Z,1008.94
2023-03-05T06:51:09.515Z,1008.94
2023-03-05T06:51:50.017Z,1008.97
2023-03-05T06:52:30.519Z,1008.98
2023-03-05T06:53:11.048Z,1008.98
2023-03-05T06:53:51.533Z,1008.98
2023-03-05T06:54:32.015Z,1008.99
2023-03-05T06:55:12.522Z,1008.95
2023-03-05T06:56:33.510Z,1008.99
2023-03-05T06:57:14.002Z,1009
2023-03-05T06:57:54.554Z,1009.03
2023-03-05T06:58:35.086Z,1009
2023-03-05T06:59:15.595Z,1009.05
2023-03-05T06:59:56.066Z,1009
2023-03-05T07:00:36.586Z,1009.02
2023-03-05T07:01:17.164Z,1009
2023-03-05T07:01:57.515Z,1009.03
2023-03-05T07:02:38.051Z,1009.04
2023-03-05T07:03:18.544Z,1009.04
2023-03-05T07:03:59.006Z,1009.02
2023-03-05T07:04:39.503Z,1009.01
2023-03-05T07:05:20.015Z,1008.98
2023-03-05T07:06:00.540Z,1008.97
2023-03-05T07:06:41.053Z,1008.97
2023-03-05T07:07:21.531Z,1008.93
2023-03-05T07:08:02.018Z,1008.94
2023-03-05T07:08:43.115Z,1008.9
2023-03-05T07:09:23.634Z,1008.89
2023-03-05T07:10:04.103Z,1008.88
2023-03-05T07:10:44.611Z,1008.87
2023-03-05T07:11:25.140Z,1008.83
2023-03-05T07:12:05.605Z,1008.84
2023-03-05T07:12:46.062Z,1008.8
2023-03-05T07:13:26.547Z,1008.81
2023-03-05T07:14:07.039Z,1008.81
2023-03-05T07:14:48.294Z,1008.79
2023-03-05T07:15:28.789Z,1008.77
2023-03-05T07:16:09.409Z,1008.78
2023-03-05T07:16:49.816Z,1008.81
2023-03-05T07:17:30.327Z,1008.77
2023-03-05T07:18:10.831Z,1008.78
2023-03-05T07:18:51.334Z,1008.75
2023-03-05T07:19:31.810Z,1008.74
2023-03-05T07:20:12.325Z,1008.74
2023-03-05T07:20:52.809Z,1008.69
2023-03-05T07:21:33.317Z,1008.67
2023-03-05T07:22:13.818Z,1008.65
2023-03-05T07:22:54.280Z,1008.69
2023-03-05T07:23:34.761Z,1008.66
2023-03-05T07:24:15.220Z,1008.67
2023-03-05T07:24:55.759Z,1008.71
2023-03-05T07:25:36.225Z,1008.72
2023-03-05T07:26:16.769Z,1008.76
2023-03-05T07:26:57.249Z,1008.73
2023-03-05T07:27:37.747Z,1008.79
2023-03-05T07:28:18.252Z,1008.77
2023-03-05T07:28:58.731Z,1008.75
2023-03-05T07:29:39.229Z,1008.77
2023-03-05T07:30:19.750Z,1008.76
2023-03-05T07:31:00.263Z,1008.81
2023-03-05T07:31:40.709Z,1008.81
2023-03-05T07:32:21.201Z,1008.79
2023-03-05T07:33:01.718Z,1008.83
2023-03-05T07:33:42.140Z,1008.82
2023-03-05T07:34:22.694Z,1008.79
2023-03-05T07:35:03.133Z,1008.79
2023-03-05T07:35:43.631Z,1008.8
2023-03-05T07:36:24.112Z,1008.74
2023-03-05T07:37:04.598Z,1008.76
2023-03-05T07:37:45.076Z,1008.81
2023-03-05T07:38:25.564Z,1008.82
2023-03-05T07:39:06.048Z,1008.76
2023-03-05T07:39:47.372Z,1008.81
2023-03-05T07:40:27.062Z,1008.82
2023-03-05T07:41:48.035Z,1008.85
2023-03-05T07:42:28.537Z,1008.79
2023-03-05T07:43:09.018Z,1008.82
2023-03-05T07:43:49.555Z,1008.81
2023-03-05T07:44:30.045Z,1008.83
2023-03-05T07:45:10.521Z,1008.79
2023-03-05T07:45:51.024Z,1008.81
2023-03-05T07:46:31.497Z,1008.85
2023-03-05T07:47:12.113Z,1008.82
2023-03-05T07:47:52.749Z,1008.84
2023-03-05T07:48:33.156Z,1008.8
2023-03-05T07:49:14.442Z,1008.8
2023-03-05T07:49:54.206Z,1008.81
2023-03-05T07:50:34.620Z,1008.81
2023-03-05T07:51:15.099Z,1008.8
2023-03-05T07:51:55.640Z,1008.79
2023-03-05T07:54:08.856Z,1008.76
2023-03-05T07:54:49.293Z,1008.72
2023-03-05T07:55:29.806Z,1008.74
2023-03-05T07:56:10.330Z,1008.69
2023-03-05T07:56:50.808Z,1008.71
2023-03-05T07:57:31.316Z,1008.67
2023-03-05T07:58:11.836Z,1008.7
2023-03-05T07:58:52.298Z,1008.71
2023-03-05T07:59:32.783Z,1008.69
2023-03-05T08:00:13.291Z,1008.63
2023-03-05T08:00:53.825Z,1008.7
2023-03-05T08:01:34.388Z,1008.68
2023-03-05T08:02:14.844Z,1008.68
2023-03-05T08:02:55.276Z,1008.72
2023-03-05T08:03:35.771Z,1008.66
2023-03-05T08:04:16.329Z,1008.66
2023-03-05T08:04:56.796Z,1008.69
2023-03-05T08:05:37.312Z,1008.68
2023-03-05T08:06:17.815Z,1008.65
2023-03-05T08:06:58.339Z,1008.63
2023-03-05T08:07:38.818Z,1008.64
2023-03-05T08:08:19.336Z,1008.62
2023-03-05T08:09:40.337Z,1008.55
2023-03-05T08:10:20.826Z,1008.6
2023-03-05T08:11:03.277Z,1008.58
2023-03-05T08:11:41.866Z,1008.59
2023-03-05T08:12:22.378Z,1008.58
2023-03-05T08:13:02.843Z,1008.62
2023-03-05T08:13:43.346Z,1008.59
2023-03-05T08:14:23.814Z,1008.61
2023-03-05T08:15:04.316Z,1008.61
2023-03-05T08:15:44.812Z,1008.57
2023-03-05T08:16:25.286Z,1008.58
2023-03-05T08:17:05.794Z,1008.62
2023-03-05T08:17:46.294Z,1008.62
2023-03-05T08:18:26.789Z,1008.6
2023-03-05T08:19:07.326Z,1008.55
2023-03-05T08:19:47.872Z,1008.59
2023-03-05T08:20:28.390Z,1008.6
2023-03-05T08:21:08.877Z,1008.56
2023-03-05T08:21:49.374Z,1008.56
2023-03-05T08:22:29.928Z,1008.55
2023-03-05T08:23:10.479Z,1008.55
2023-03-05T08:23:50.915Z,1008.54
2023-03-05T08:24:31.415Z,1008.5
2023-03-05T08:25:11.939Z,1008.52
2023-03-05T08:25:52.436Z,1008.45
2023-03-05T08:26:32.946Z,1008.49
2023-03-05T08:27:13.437Z,1008.51
2023-03-05T08:27:53.947Z,1008.49
2023-03-05T08:28:34.544Z,1008.48
2023-03-05T08:29:14.973Z,1008.45
2023-03-05T08:29:55.474Z,1008.45
2023-03-05T08:30:35.938Z,1008.47
2023-03-05T08:31:16.576Z,1008.45
2023-03-05T08:31:56.987Z,1008.46
2023-03-05T08:32:37.542Z,1008.48
2023-03-05T08:33:18.548Z,1008.48
2023-03-05T08:33:58.971Z,1008.46
2023-03-05T08:34:39.482Z,1008.43
2023-03-05T08:35:20.041Z,1008.42
2023-03-05T08:36:00.507Z,1008.46
2023-03-05T08:37:21.422Z,1008.42
2023-03-05T08:38:01.932Z,1008.46
2023-03-05T08:38:42.415Z,1008.45
2023-03-05T08:39:22.956Z,1008.45
2023-03-05T08:40:03.517Z,1008.41
2023-03-05T08:40:44.056Z,1008.41
2023-03-05T08:41:24.548Z,1008.45
2023-03-05T08:42:06.326Z,1008.38
2023-03-05T08:42:45.611Z,1008.39
2023-03-05T08:43:26.116Z,1008.38
2023-03-05T08:44:06.603Z,1008.4
2023-03-05T08:44:47.196Z,1008.34
2023-03-05T08:45:27.723Z,1008.36
2023-03-05T08:46:08.276Z,1008.32
2023-03-05T08:47:29.223Z,1008.26
2023-03-05T08:48:09.729Z,1008.31
2023-03-05T08:48:50.396Z,1008.29
2023-03-05T08:49:30.905Z,1008.29
2023-03-05T08:50:11.408Z,1008.22
2023-03-05T08:50:51.976Z,1008.23
2023-03-05T08:51:32.553Z,1008.22
2023-03-05T08:52:12.958Z,1008.24
2023-03-05T08:52:53.443Z,1008.32
2023-03-05T08:53:33.938Z,1008.27
2023-03-05T08:54:14.453Z,1008.32
2023-03-05T08:54:55.005Z,1008.31
2023-03-05T08:55:35.456Z,1008.3
2023-03-05T08:56:15.991Z,1008.25
2023-03-05T08:56:56.501Z,1008.31
2023-03-05T08:57:36.991Z,1008.32
2023-03-05T08:58:17.475Z,1008.31
2023-03-05T08:58:57.973Z,1008.32
2023-03-05T08:59:38.491Z,1008.28
2023-03-05T09:00:18.971Z,1008.3
2023-03-05T09:00:59.519Z,1008.21
2023-03-05T09:01:40.014Z,1008.26
2023-03-05T09:02:20.528Z,1008.29
2023-03-05T09:03:01.066Z,1008.26
2023-03-05T09:03:41.584Z,1008.26
2023-03-05T09:04:22.086Z,1008.24
2023-03-05T09:05:02.638Z,1008.14
2023-03-05T09:05:43.171Z,1008.25
2023-03-05T09:06:23.704Z,1008.23
2023-03-05T09:07:04.235Z,1008.22
2023-03-05T09:07:44.738Z,1008.28
2023-03-05T09:08:25.231Z,1008.24
2023-03-05T09:09:05.731Z,1008.24
2023-03-05T09:09:46.211Z,1008.2
2023-03-05T09:10:26.738Z,1008.22
2023-03-05T09:11:07.293Z,1008.25
2023-03-05T09:11:47.854Z,1008.2
2023-03-05T09:12:28.315Z,1008.17
2023-03-05T09:13:08.813Z,1008.2
2023-03-05T09:13:49.326Z,1008.11
2023-03-05T09:14:29.884Z,1008.13
2023-03-05T09:15:10.278Z,1008.12
2023-03-05T09:15:51.120Z,1008.14
2023-03-05T09:16:31.719Z,1008.09
2023-03-05T09:17:12.120Z,1008.1
2023-03-05T09:18:33.197Z,1008.06
2023-03-05T09:19:13.737Z,1008.09
2023-03-05T09:19:54.172Z,1008.09
2023-03-05T09:20:35.607Z,1008
2023-03-05T09:21:16.148Z,1008.07
2023-03-05T09:21:57.144Z,1008.07
2023-03-05T09:22:37.205Z,1008.11
2023-03-05T09:23:17.690Z,1008.07
2023-03-05T09:23:58.158Z,1008.05
2023-03-05T09:24:38.730Z,1008.03
2023-03-05T09:25:19.244Z,1008.01
2023-03-05T09:25:59.706Z,1008.04
2023-03-05T09:26:40.244Z,1008.02
2023-03-05T09:27:20.708Z,1007.98
2023-03-05T09:28:01.261Z,1008.04
2023-03-05T09:28:41.785Z,1008.05
2023-03-05T09:29:22.327Z,1008.01
2023-03-05T09:30:02.850Z,1007.96
2023-03-05T09:30:43.341Z,1007.96
2023-03-05T09:31:24.049Z,1007.98
2023-03-05T09:32:04.631Z,1008.01
2023-03-05T09:32:45.021Z,1007.96
2023-03-05T09:33:25.536Z,1007.97
2023-03-05T09:34:06.112Z,1007.92
2023-03-05T09:34:47.372Z,1007.79
2023-03-05T09:35:27.899Z,1007.91
2023-03-05T09:36:08.373Z,1007.96
2023-03-05T09:36:49.862Z,1007.94
2023-03-05T09:37:30.324Z,1007.92
2023-03-05T09:38:13.107Z,1007.94
2023-03-05T09:38:54.643Z,1007.91
2023-03-05T09:39:36.831Z,1007.89
2023-03-05T09:40:19.741Z,1007.86
2023-03-05T09:41:00.016Z,1007.9
2023-03-05T09:41:40.550Z,1007.92
2023-03-05T09:42:21.090Z,1007.89
2023-03-05T09:43:01.543Z,1007.92
2023-03-05T09:43:42.110Z,1007.79
2023-03-05T09:44:22.618Z,1007.86
2023-03-05T09:45:03.179Z,1007.83
2023-03-05T09:45:43.787Z,1007.84
2023-03-05T09:46:24.223Z,1007.86
2023-03-05T09:47:04.734Z,1007.8
2023-03-05T09:47:45.282Z,1007.86
2023-03-05T09:48:25.926Z,1007.83
2023-03-05T09:49:06.614Z,1007.81
2023-03-05T09:49:47.074Z,1007.82
2023-03-05T09:50:29.581Z,1007.81